createdAt,value
2023-03-13T00:02:40.036Z,5.38
2023-03-13T00:06:42.354Z,5.48
2023-03-13T00:10:43.816Z,5.42
2023-03-13T00:14:45.276Z,5.48
2023-03-13T00:18:48.888Z,5.47
2023-03-13T00:22:50.391Z,5.48
2023-03-13T00:26:51.824Z,5.40
2023-03-13T00:31:20.591Z,5.35
2023-03-13T00:35:22.229Z,5.42
2023-03-13T00:39:23.682Z,5.45
2023-03-13T00:43:25.101Z,5.55
2023-03-13T00:47:26.581Z,5.46
2023-03-13T00:51:29.038Z,5.52
2023-03-13T00:55:30.507Z,5.42
2023-03-13T00:59:31.915Z,5.49
2023-03-13T01:03:33.357Z,5.38
2023-03-13T01:07:34.846Z,5.52
2023-03-13T01:11:38.792Z,5.57
2023-03-13T01:15:40.266Z,5.56
2023-03-13T01:19:41.890Z,5.54
2023-03-13T01:23:43.364Z,5.39
2023-03-13T01:27:44.774Z,5.46
2023-03-13T01:31:46.252Z,5.45
2023-03-13T01:35:48.062Z,5.50
2023-03-13T01:39:49.499Z,5.37
2023-03-13T01:43:51.381Z,5.50
2023-03-13T01:47:53.074Z,5.46
2023-03-13T01:52:06.342Z,5.33
2023-03-13T01:56:13.558Z,5.47
2023-03-13T02:00:20.051Z,5.47
2023-03-13T02:04:23.440Z,5.35
2023-03-13T02:08:32.592Z,5.29
2023-03-13T02:12:36.384Z,5.45
2023-03-13T02:16:38.445Z,5.39
2023-03-13T02:20:40.590Z,5.35
2023-03-13T02:25:02.079Z,5.34
2023-03-13T02:29:03.619Z,5.35
2023-03-13T02:33:05.179Z,5.43
2023-03-13T02:37:10.870Z,5.47
2023-03-13T02:41:13.747Z,5.54
2023-03-13T02:45:17.267Z,5.50
2023-03-13T02:49:21.794Z,5.47
2023-03-13T02:53:23.249Z,5.59
2023-03-13T02:57:24.712Z,5.59
2023-03-13T03:01:26.202Z,5.64
2023-03-13T03:05:27.660Z,5.72
2023-03-13T03:09:29.120Z,5.77
2023-03-13T03:13:30.686Z,5.68
2023-03-13T03:17:32.133Z,5.64
2023-03-13T03:21:34.675Z,5.66
2023-03-13T03:25:36.097Z,5.69
2023-03-13T03:29:37.505Z,5.71
2023-03-13T03:33:39.939Z,5.78
2023-03-13T03:37:41.401Z,5.72
2023-03-13T03:41:42.823Z,5.76
2023-03-13T03:45:44.309Z,5.77
2023-03-13T03:49:45.810Z,5.90
2023-03-13T03:53:47.388Z,5.76
2023-03-13T03:57:48.836Z,5.88
2023-03-13T04:01:50.314Z,5.90
2023-03-13T04:05:52.137Z,6.03
2023-03-13T04:09:53.545Z,6.01
2023-03-13T04:13:54.991Z,6.02
2023-03-13T04:17:56.459Z,6.05
2023-03-13T04:21:57.962Z,6.13
2023-03-13T04:25:59.483Z,6.16
2023-03-13T04:30:00.912Z,6.25
2023-03-13T04:34:02.782Z,6.16
2023-03-13T04:38:04.247Z,6.25
2023-03-13T04:42:05.773Z,6.36
2023-03-13T04:46:07.423Z,6.34
2023-03-13T04:50:09.472Z,6.26
2023-03-13T04:54:11.506Z,6.29
2023-03-13T04:58:12.993Z,6.31
2023-03-13T05:02:14.484Z,6.31
2023-03-13T05:06:16.212Z,6.26
2023-03-13T05:10:17.834Z,6.23
2023-03-13T05:14:19.507Z,6.24
2023-03-13T05:18:20.930Z,6.16
2023-03-13T05:22:22.378Z,6.15
2023-03-13T05:26:23.852Z,6.14
2023-03-13T05:30:25.404Z,6.11
2023-03-13T05:34:26.844Z,6.09
2023-03-13T05:38:28.374Z,6.10
2023-03-13T05:42:29.996Z,6.07
2023-03-13T05:46:32.399Z,6.07
2023-03-13T05:50:34.020Z,6.32
2023-03-13T05:54:35.441Z,6.85
2023-03-13T05:58:36.884Z,6.70
2023-03-13T06:02:38.329Z,6.38
2023-03-13T06:06:39.815Z,6.25
2023-03-13T06:10:41.288Z,6.23
2023-03-13T06:14:42.707Z,6.25
2023-03-13T06:18:44.700Z,6.34
2023-03-13T06:22:46.196Z,6.38
2023-03-13T06:26:51.395Z,6.29
2023-03-13T06:30:53.180Z,6.34
2023-03-13T06:34:54.689Z,6.37
2023-03-13T06:38:56.152Z,6.41
2023-03-13T06:42:57.623Z,6.39
2023-03-13T06:46:59.171Z,6.44
2023-03-13T06:51:00.725Z,6.48
2023-03-13T06:55:02.228Z,6.52
2023-03-13T06:59:03.769Z,6.58
2023-03-13T07:03:05.555Z,6.66
2023-03-13T07:07:07.066Z,6.60
2023-03-13T07:11:10.946Z,6.55
2023-03-13T07:15:12.377Z,6.51
2023-03-13T07:19:15.088Z,6.66
2023-03-13T07:23:16.538Z,6.55
2023-03-13T07:27:21.035Z,6.71
2023-03-13T07:31:24.469Z,6.70
2023-03-13T07:35:26.090Z,6.66
2023-03-13T07:39:27.601Z,6.75
2023-03-13T07:43:31.326Z,6.80
2023-03-13T07:47:34.813Z,6.91
2023-03-13T07:51:43.532Z,7.05
2023-03-13T07:55:52.272Z,7.18
2023-03-13T07:59:53.701Z,7.21
2023-03-13T08:03:56.131Z,7.29
2023-03-13T08:07:57.618Z,7.28
2023-03-13T08:11:59.047Z,7.27
2023-03-13T08:16:07.983Z,7.30
2023-03-13T08:20:10.577Z,7.28
2023-03-13T08:24:12.954Z,7.32
2023-03-13T08:28:14.398Z,7.38
2023-03-13T08:32:18.069Z,7.37
2023-03-13T08:36:25.134Z,7.48
2023-03-13T08:40:26.582Z,7.42
2023-03-13T08:44:30.735Z,7.51
2023-03-13T08:48:32.298Z,7.64
2023-03-13T08:52:33.761Z,7.75
2023-03-13T08:56:35.334Z,7.84
2023-03-13T09:00:36.870Z,7.91
2023-03-13T09:04:38.324Z,7.96
2023-03-13T09:08:41.440Z,7.99
2023-03-13T09:12:42.877Z,8.14
2023-03-13T09:16:46.304Z,8.14
2023-03-13T09:20:49.076Z,8.21
2023-03-13T09:24:50.678Z,8.32
2023-03-13T09:28:52.996Z,8.28
2023-03-13T09:32:54.537Z,8.24
2023-03-13T09:36:55.994Z,8.25
2023-03-13T09:41:14.550Z,8.37
2023-03-13T09:45:33.874Z,8.44
2023-03-13T09:49:41.038Z,8.61
2023-03-13T09:53:49.682Z,8.74
2023-03-13T09:58:11.292Z,8.90
2023-03-13T10:02:35.283Z,8.91
2023-03-13T10:06:42.562Z,8.91
2023-03-13T10:11:08.012Z,-146.77
2023-03-13T10:15:24.582Z,-146.77
2023-03-13T10:19:37.760Z,-146.77
2023-03-13T10:23:39.271Z,-146.77
2023-03-13T10:27:50.444Z,-146.77
2023-03-13T10:32:04.359Z,-146.77
2023-03-13T10:36:09.257Z,-146.77
2023-03-13T10:44:30.099Z,8.91
2023-03-13T10:48:41.715Z,8.91
2023-03-13T10:52:47.813Z,8.91
2023-03-13T10:56:50.925Z,8.91
2023-03-13T11:00:52.480Z,8.91
2023-03-13T11:04:54.835Z,10.29
2023-03-13T11:09:14.239Z,10.45
2023-03-13T11:13:36.444Z,10.60
2023-03-13T11:17:42.517Z,10.71
2023-03-13T11:22:14.885Z,10.75
2023-03-13T11:26:31.584Z,10.96
2023-03-13T11:30:50.550Z,11.17
2023-03-13T11:34:57.557Z,11.26
2023-03-13T11:39:08.034Z,11.25
2023-03-13T11:43:30.980Z,11.43
2023-03-13T11:48:07.451Z,11.59
2023-03-13T11:52:21.312Z,11.61
2023-03-13T11:56:33.864Z,11.74
2023-03-13T12:00:37.903Z,11.67
2023-03-13T12:04:45.561Z,11.76
2023-03-13T12:08:53.461Z,11.92
2023-03-13T12:13:06.412Z,12.25
2023-03-13T12:17:22.673Z,12.40
2023-03-13T12:21:54.878Z,12.68
2023-03-13T12:26:12.233Z,12.87
2023-03-13T12:30:33.717Z,13.39
2023-03-13T12:34:54.044Z,13.74
2023-03-13T12:38:58.753Z,13.85
2023-03-13T12:43:18.729Z,13.47
2023-03-13T12:47:20.059Z,14.06
2023-03-13T12:51:49.174Z,-146.77
2023-03-13T12:56:05.934Z,-146.77
2023-03-13T13:00:20.739Z,-146.77
2023-03-13T13:04:25.865Z,-146.77
2023-03-13T13:08:46.959Z,-146.77
2023-03-13T13:13:14.199Z,-146.77
2023-03-13T13:17:44.909Z,-146.77
2023-03-13T13:21:46.448Z,-146.77
2023-03-13T13:25:49.724Z,-146.77
2023-03-13T13:29:54.812Z,-146.77
2023-03-13T13:33:56.292Z,-146.77
2023-03-13T13:38:19.492Z,-146.77
2023-03-13T13:42:30.579Z,-146.77
2023-03-13T13:46:33.990Z,-146.77
2023-03-13T13:50:35.569Z,-146.77
2023-03-13T13:54:44.649Z,-146.77
2023-03-13T13:58:47.048Z,-146.77
2023-03-13T14:02:51.738Z,-146.77
2023-03-13T14:06:54.288Z,-146.77
2023-03-13T14:11:05.476Z,-146.77
2023-03-13T14:15:13.119Z,-146.77
2023-03-13T14:19:28.501Z,-146.77
2023-03-13T14:23:40.034Z,-146.77
2023-03-13T14:27:46.272Z,-146.77
2023-03-13T14:31:55.973Z,-146.77
2023-03-13T14:35:57.817Z,-146.77
2023-03-13T14:40:09.611Z,-146.77
2023-03-13T14:44:29.811Z,-146.77
2023-03-13T14:48:34.592Z,-146.77
2023-03-13T14:52:36.946Z,-146.77
2023-03-13T14:56:43.512Z,-146.77
2023-03-13T15:00:47.609Z,-146.77
2023-03-13T15:05:02.313Z,-146.77
2023-03-13T15:09:09.852Z,-146.77
2023-03-13T15:13:20.452Z,-146.77
2023-03-13T15:17:24.176Z,-146.77
2023-03-13T15:21:31.116Z,-146.77
2023-03-13T15:25:32.564Z,-146.77
2023-03-13T15:29:34.045Z,-146.77
2023-03-13T15:33:35.576Z,-146.77
2023-03-13T15:37:37.186Z,-146.77
2023-03-13T15:41:38.626Z,-146.77
2023-03-13T15:45:42.571Z,-146.77
2023-03-13T15:49:44.105Z,-146.77
2023-03-13T15:53:46.259Z,-146.77
2023-03-13T15:57:50.498Z,-146.77
2023-03-13T16:01:51.988Z,-146.77
2023-03-13T16:05:55.309Z,-146.77
2023-03-13T16:09:56.861Z,-146.77
2023-03-13T16:13:58.693Z,-146.77
2023-03-13T16:18:00.236Z,-146.77
2023-03-13T16:22:01.703Z,-146.77
2023-03-13T16:26:03.283Z,-146.77
2023-03-13T16:30:13.269Z,-146.77
2023-03-13T16:34:14.715Z,-146.77
2023-03-13T16:38:16.229Z,-146.77
2023-03-13T16:42:17.753Z,-146.77
2023-03-13T16:46:29.915Z,-146.77
2023-03-13T16:50:38.327Z,-146.77
2023-03-13T16:54:39.879Z,-146.77
2023-03-13T16:58:41.318Z,-146.77
2023-03-13T17:02:43.175Z,-146.77
2023-03-13T17:06:44.894Z,-146.77
2023-03-13T17:14:52.886Z,-146.77
2023-03-13T17:18:54.453Z,-146.77
2023-03-13T17:22:56.706Z,-146.77
2023-03-13T17:26:58.211Z,-146.77
2023-03-13T17:30:59.751Z,-146.77
2023-03-13T17:35:01.282Z,-146.77
2023-03-13T17:39:05.673Z,-146.77
2023-03-13T17:43:07.491Z,-146.77
2023-03-13T17:47:17.606Z,-146.77
2023-03-13T17:51:25.814Z,-146.77
2023-03-13T17:55:27.292Z,-146.77
2023-03-13T17:59:29.521Z,-146.77
2023-03-13T18:03:31.847Z,-146.77
2023-03-13T18:07:33.336Z,-146.77
2023-03-13T18:11:36.557Z,-146.77
2023-03-13T18:15:38.210Z,-146.77
2023-03-13T18:19:39.709Z,-146.77
2023-03-13T18:23:41.317Z,-146.77
2023-03-13T18:27:42.973Z,-146.77
2023-03-13T18:31:45.207Z,-146.77
2023-03-13T18:35:46.779Z,-146.77
2023-03-13T18:39:49.928Z,-146.77
2023-03-13T18:43:52.255Z,-146.77
2023-03-13T18:47:54.524Z,-146.77
2023-03-13T18:51:56.070Z,-146.77
2023-03-13T18:56:06.121Z,-146.77
2023-03-13T19:00:24.158Z,-146.77
2023-03-13T19:04:25.966Z,-146.77
2023-03-13T19:08:27.527Z,-146.77
2023-03-13T19:12:32.422Z,-146.77
2023-03-13T19:16:46.082Z,-146.77
2023-03-13T19:20:47.679Z,-146.77
2023-03-13T19:24:49.144Z,-146.77
2023-03-13T19:28:50.606Z,-146.77
2023-03-13T19:32:52.353Z,-146.77
2023-03-13T19:36:53.864Z,-146.77
2023-03-13T19:40:55.353Z,-146.77
2023-03-13T19:44:56.775Z,-146.77
2023-03-13T19:49:00.361Z,-146.77
2023-03-13T19:53:01.861Z,-146.77
2023-03-13T19:57:03.962Z,-146.77
2023-03-13T20:01:16.903Z,-146.77
2023-03-13T20:05:19.107Z,-146.77
2023-03-13T20:09:20.949Z,-146.77
2023-03-13T20:13:22.569Z,-146.77
2023-03-13T20:17:24.031Z,-146.77
2023-03-13T20:21:36.396Z,-146.77
2023-03-13T20:25:37.864Z,-146.77
2023-03-13T20:29:41.259Z,-146.77
2023-03-13T20:33:42.830Z,-146.77
2023-03-13T20:37:44.948Z,-146.77
2023-03-13T20:41:46.392Z,-146.77
2023-03-13T20:45:47.892Z,-146.77
2023-03-13T20:49:49.333Z,-146.77
2023-03-13T20:53:50.755Z,-146.77
2023-03-13T20:57:52.329Z,-146.77
2023-03-13T21:01:53.784Z,-146.77
2023-03-13T21:05:55.338Z,-146.77
2023-03-13T21:09:56.759Z,-146.77
2023-03-13T21:13:58.166Z,-146.77
2023-03-13T21:18:00.112Z,-146.77
2023-03-13T21:22:01.549Z,-146.77
2023-03-13T21:26:03.220Z,-146.77
2023-03-13T21:30:07.460Z,-146.77
2023-03-13T21:34:10.530Z,-146.77
2023-03-13T21:38:12.075Z,-146.77
2023-03-13T21:42:13.669Z,-146.77
2023-03-13T21:46:18.008Z,-146.77
2023-03-13T21:54:25.464Z,-146.77
2023-03-13T21:58:27.062Z,-146.77
2023-03-13T22:02:28.727Z,-146.77
2023-03-13T22:06:30.190Z,-146.77
2023-03-13T22:10:31.735Z,-146.77
2023-03-13T22:14:33.214Z,-146.77
2023-03-13T22:18:34.641Z,-146.77
2023-03-13T22:22:36.187Z,-146.77
2023-03-13T22:26:38.214Z,-146.77
2023-03-13T22:30:40.575Z,-146.77
2023-03-13T22:34:44.980Z,-146.77
2023-03-13T22:38:46.525Z,-146.77
2023-03-13T22:42:48.294Z,-146.77
2023-03-13T22:46:49.759Z,-146.77
2023-03-13T22:51:02.764Z,-146.77
2023-03-13T22:55:04.657Z,-146.77
2023-03-13T22:59:06.208Z,-146.77
2023-03-13T23:03:07.669Z,-146.77
2023-03-13T23:07:09.113Z,-146.77
2023-03-13T23:11:11.227Z,-146.77
2023-03-13T23:15:12.921Z,-146.77
2023-03-13T23:19:14.382Z,-146.77
2023-03-13T23:23:16.404Z,-146.77
2023-03-13T23:27:17.848Z,-146.77
2023-03-13T23:31:21.517Z,-146.77
2023-03-13T23:35:23.003Z,-146.77
2023-03-13T23:39:24.456Z,-146.77
2023-03-13T23:43:25.871Z,-146.77
2023-03-13T23:47:28.335Z,-146.77
2023-03-13T23:51:29.826Z,-146.77
2023-03-13T23:55:31.271Z,-146.77
2023-03-13T23:59:33.430Z,-146.77
